Andover, Vermont
Current Conditions -  °F | °C
As of 8:54 PM on Sunday 25 Jan 2015 (Local Time) from KVSF Reporting Station
Clear Clear  
Wind Chill: -15°   Ceiling: Unl
Heat Index: -10°   Visibility: 10mi
Dew Point: -18°   Wind: 6mph
Humidity: 52%   Direction: 310°NW
Pressure: 29.97"   Gusts: NA
Location:  43.2811°N, 72.6352°W
Report Text: KVSF 260154Z AUTO 31005KT 10SM CLR M10/M18 A2997 RMK AO2 SLP160 T11001183 TSNO
Loading
Personal Weather Stations






























Interactive Weather Map New forecast layout! Learn more

10-Day Weather Forecast

Advertisements
Track Severe Weather on mobile